Wetterdaten: Woche 02.04.12 - 08.04.12 (KW14)
Datum Zeit Temp. Innen Temp. Aussen UV X Diff Temp. Feuchte Inne Feuchte Auss Sonnenschein Luftdruck Regen ab 0,1 Wind Sonnenschein T Regendauer Windben
02.04.2012 00:00 15,7 C 4,0 C 0,0 UV-I 0,0 C 44 % 78 % 0 % 1015,1 hPa 0,0 l/m 0,0 km/h (0 Bft) 0,00 h 0,00 h 0,0 km/h (0 Bft)
02.04.2012 01:00 15,5 C 3,1 C 0,0 UV-I 0,0 C 44 % 81 % 0 % 1014,8 hPa 0,0 l/m 0,0 km/h (0 Bft) 0,00 h 0,00 h 0,0 km/h (0 Bft)
02.04.2012 02:00 15,3 C 2,6 C 0,0 UV-I 0,0 C 44 % 84 % 0 % 1014,6 hPa 0,0 l/m 0,0 km/h (0 Bft) 0,00 h 0,00 h 0,0 km/h (0 Bft)
02.04.2012 03:00 15,2 C 2,4 C 0,0 UV-I 0,0 C 44 % 86 % 0 % 1014,4 hPa 0,0 l/m 0,1 km/h (0 Bft) 0,00 h 0,00 h 0,6 km/h (0 Bft)
02.04.2012 04:00 15,2 C 2,5 C 0,0 UV-I 0,0 C 45 % 88 % 0 % 1013,9 hPa 0,0 l/m 0,2 km/h (0 Bft) 0,00 h 0,00 h 0,9 km/h (0 Bft)
02.04.2012 05:00 15,1 C 3,2 C 0,0 UV-I 0,0 C 45 % 89 % 0 % 1012,9 hPa 0,0 l/m 0,8 km/h (0 Bft) 0,00 h 0,00 h 2,5 km/h (1 Bft)
02.04.2012 06:00 15,1 C 3,8 C 0,0 UV-I 0,0 C 45 % 88 % 0 % 1012,5 hPa 0,0 l/m 1,3 km/h (1 Bft) 0,00 h 0,00 h 3,9 km/h (1 Bft)
02.04.2012 07:00 15,0 C 3,9 C 0,0 UV-I 0,0 C 45 % 88 % 0 % 1012,6 hPa 0,0 l/m 2,0 km/h (1 Bft) 0,00 h 0,00 h 4,5 km/h (1 Bft)
02.04.2012 08:00 15,0 C 4,2 C 0,0 UV-I 0,4 C 46 % 88 % 12 % 1012,7 hPa 0,0 l/m 0,9 km/h (0 Bft) 0,00 h 0,00 h 3,3 km/h (1 Bft)
02.04.2012 09:00 15,2 C 5,2 C 0,0 UV-I 1,2 C 46 % 87 % 34 % 1013,0 hPa 0,0 l/m 2,4 km/h (1 Bft) 0,00 h 0,00 h 5,5 km/h (1 Bft)
02.04.2012 10:00 15,3 C 6,3 C 0,3 UV-I 3,0 C 46 % 84 % 82 % 1013,1 hPa 0,0 l/m 2,4 km/h (1 Bft) 0,57 h 0,00 h 5,3 km/h (1 Bft)
02.04.2012 11:00 15,7 C 8,0 C 1,3 UV-I 5,7 C 46 % 82 % 100 % 1012,9 hPa 0,0 l/m 1,8 km/h (1 Bft) 1,00 h 0,00 h 4,5 km/h (1 Bft)
02.04.2012 12:00 16,2 C 9,6 C 1,8 UV-I 6,5 C 46 % 78 % 100 % 1012,7 hPa 0,0 l/m 2,5 km/h (1 Bft) 1,00 h 0,00 h 6,8 km/h (2 Bft)
02.04.2012 13:00 16,9 C 11,4 C 2,2 UV-I 6,3 C 45 % 72 % 100 % 1012,4 hPa 0,0 l/m 3,5 km/h (1 Bft) 1,00 h 0,00 h 8,0 km/h (2 Bft)
02.04.2012 14:00 17,8 C 12,2 C 2,0 UV-I 6,2 C 44 % 68 % 100 % 1012,5 hPa 0,0 l/m 2,9 km/h (1 Bft) 1,00 h 0,00 h 7,7 km/h (2 Bft)
02.04.2012 15:00 18,7 C 12,6 C 1,4 UV-I 5,0 C 43 % 65 % 100 % 1011,9 hPa 0,0 l/m 5,0 km/h (1 Bft) 1,00 h 0,00 h 8,9 km/h (2 Bft)
02.04.2012 16:00 18,9 C 12,5 C 0,7 UV-I 3,1 C 43 % 65 % 89 % 1010,8 hPa 0,0 l/m 4,8 km/h (1 Bft) 0,97 h 0,00 h 8,7 km/h (2 Bft)
02.04.2012 17:00 18,7 C 12,7 C 0,3 UV-I 1,9 C 43 % 65 % 55 % 1009,4 hPa 0,0 l/m 3,3 km/h (1 Bft) 0,03 h 0,00 h 6,1 km/h (2 Bft)
02.04.2012 18:00 18,3 C 12,7 C 0,0 UV-I 1,1 C 44 % 64 % 33 % 1008,4 hPa 0,0 l/m 1,7 km/h (1 Bft) 0,00 h 0,00 h 4,5 km/h (1 Bft)
02.04.2012 19:00 17,9 C 12,2 C 0,0 UV-I 0,2 C 45 % 64 % 7 % 1008,0 hPa 0,0 l/m 2,0 km/h (1 Bft) 0,00 h 0,00 h 4,4 km/h (1 Bft)
02.04.2012 20:00 17,4 C 10,5 C 0,0 UV-I 0,0 C 46 % 68 % 0 % 1007,6 hPa 0,0 l/m 0,3 km/h (0 Bft) 0,00 h 0,00 h 0,7 km/h (0 Bft)
02.04.2012 21:00 16,8 C 8,3 C 0,0 UV-I 0,0 C 47 % 74 % 0 % 1007,4 hPa 0,0 l/m 0,0 km/h (0 Bft) 0,00 h 0,00 h 0,0 km/h (0 Bft)
02.04.2012 22:00 16,5 C 6,9 C 0,0 UV-I 0,0 C 48 % 78 % 0 % 1007,1 hPa 0,0 l/m 0,0 km/h (0 Bft) 0,00 h 0,00 h 0,0 km/h (0 Bft)
02.04.2012 23:00 16,3 C 5,9 C 0,0 UV-I 0,0 C 48 % 82 % 0 % 1006,6 hPa 0,0 l/m 0,0 km/h (0 Bft) 0,00 h 0,00 h 0,0 km/h (0 Bft)
03.04.2012 00:00 16,2 C 5,8 C 0,0 UV-I 0,0 C 48 % 85 % 0 % 1006,3 hPa 0,0 l/m 0,0 km/h (0 Bft) 0,00 h 0,00 h 0,0 km/h (0 Bft)
03.04.2012 01:00 16,0 C 5,5 C 0,0 UV-I 0,0 C 49 % 86 % 0 % 1005,9 hPa 0,0 l/m 0,0 km/h (0 Bft) 0,00 h 0,00 h 0,0 km/h (0 Bft)
03.04.2012 02:00 16,0 C 5,2 C 0,0 UV-I 0,0 C 49 % 88 % 0 % 1005,5 hPa 0,0 l/m 0,0 km/h (0 Bft) 0,00 h 0,00 h 0,0 km/h (0 Bft)
03.04.2012 03:00 15,9 C 4,6 C 0,0 UV-I 0,0 C 49 % 88 % 0 % 1005,1 hPa 0,0 l/m 0,0 km/h (0 Bft) 0,00 h 0,03 h 0,0 km/h (0 Bft)
03.04.2012 04:00 15,7 C 3,9 C 0,0 UV-I 0,0 C 49 % 89 % 0 % 1004,8 hPa 0,0 l/m 0,1 km/h (0 Bft) 0,00 h 0,03 h 0,0 km/h (0 Bft)
03.04.2012 05:00 15,6 C 3,7 C 0,0 UV-I 0,0 C 49 % 91 % 0 % 1004,3 hPa 0,0 l/m 0,4 km/h (0 Bft) 0,00 h 0,00 h 0,9 km/h (0 Bft)
03.04.2012 06:00 15,6 C 4,0 C 0,0 UV-I 0,0 C 49 % 92 % 0 % 1004,0 hPa 0,0 l/m 0,0 km/h (0 Bft) 0,00 h 0,00 h 0,0 km/h (0 Bft)
03.04.2012 07:00 15,5 C 4,1 C 0,0 UV-I 0,0 C 49 % 92 % 0 % 1003,7 hPa 0,0 l/m 0,0 km/h (0 Bft) 0,00 h 0,00 h 0,0 km/h (0 Bft)
03.04.2012 08:00 15,6 C 5,0 C 0,0 UV-I 0,5 C 49 % 93 % 15 % 1003,8 hPa 0,0 l/m 0,0 km/h (0 Bft) 0,00 h 0,00 h 0,3 km/h (0 Bft)
03.04.2012 09:00 15,8 C 7,0 C 0,0 UV-I 1,4 C 50 % 93 % 40 % 1004,0 hPa 0,0 l/m 0,5 km/h (0 Bft) 0,00 h 0,00 h 1,7 km/h (1 Bft)
03.04.2012 10:00 16,0 C 9,0 C 0,3 UV-I 2,2 C 49 % 88 % 62 % 1004,1 hPa 0,0 l/m 2,4 km/h (1 Bft) 0,13 h 0,00 h 5,9 km/h (2 Bft)
03.04.2012 11:00 16,4 C 11,2 C 2,0 UV-I 5,9 C 49 % 79 % 100 % 1004,3 hPa 0,0 l/m 2,8 km/h (1 Bft) 1,00 h 0,00 h 5,5 km/h (1 Bft)
03.04.2012 12:00 16,8 C 13,5 C 3,2 UV-I 7,8 C 50 % 67 % 100 % 1004,0 hPa 0,0 l/m 4,0 km/h (1 Bft) 1,00 h 0,00 h 7,1 km/h (2 Bft)
03.04.2012 13:00 17,6 C 15,1 C 3,0 UV-I 7,0 C 50 % 58 % 100 % 1003,8 hPa 0,0 l/m 4,7 km/h (1 Bft) 1,00 h 0,00 h 8,5 km/h (2 Bft)
03.04.2012 14:00 18,9 C 15,6 C 2,5 UV-I 5,7 C 48 % 54 % 100 % 1004,5 hPa 0,0 l/m 5,2 km/h (1 Bft) 1,00 h 0,00 h 9,2 km/h (2 Bft)
03.04.2012 15:00 20,4 C 16,7 C 2,8 UV-I 6,3 C 44 % 51 % 100 % 1004,6 hPa 0,0 l/m 5,1 km/h (1 Bft) 1,00 h 0,00 h 8,5 km/h (2 Bft)
03.04.2012 16:00 21,4 C 16,6 C 2,0 UV-I 4,0 C 42 % 50 % 90 % 1004,5 hPa 0,0 l/m 6,0 km/h (2 Bft) 0,73 h 0,00 h 11,8 km/h (2 Bft)
03.04.2012 17:00 20,8 C 16,0 C 0,5 UV-I 1,1 C 42 % 51 % 33 % 1002,9 hPa 0,0 l/m 4,8 km/h (1 Bft) 0,00 h 0,00 h 8,1 km/h (2 Bft)
03.04.2012 18:00 20,1 C 15,6 C 0,0 UV-I 0,2 C 44 % 53 % 5 % 1001,7 hPa 0,0 l/m 5,1 km/h (1 Bft) 0,00 h 0,00 h 8,1 km/h (2 Bft)
03.04.2012 19:00 19,4 C 14,8 C 0,0 UV-I 0,0 C 45 % 57 % 0 % 1001,5 hPa 0,0 l/m 7,5 km/h (2 Bft) 0,00 h 0,00 h 9,4 km/h (2 Bft)
03.04.2012 20:00 18,8 C 13,7 C 0,0 UV-I 0,0 C 46 % 61 % 0 % 1001,4 hPa 0,0 l/m 7,1 km/h (2 Bft) 0,00 h 0,00 h 9,6 km/h (2 Bft)
03.04.2012 21:00 18,4 C 12,7 C 0,0 UV-I 0,0 C 47 % 65 % 0 % 1001,6 hPa 0,0 l/m 7,8 km/h (2 Bft) 0,00 h 0,00 h 9,4 km/h (2 Bft)
03.04.2012 22:00 18,2 C 11,7 C 0,0 UV-I 0,0 C 49 % 68 % 0 % 1001,7 hPa 0,0 l/m 3,9 km/h (1 Bft) 0,00 h 0,00 h 5,1 km/h (1 Bft)
03.04.2012 23:00 18,0 C 10,3 C 0,0 UV-I 0,0 C 49 % 72 % 0 % 1001,3 hPa 0,0 l/m 0,0 km/h (0 Bft) 0,00 h 0,00 h 0,0 km/h (0 Bft)
04.04.2012 00:00 17,7 C 10,1 C 0,0 UV-I 0,0 C 50 % 75 % 0 % 1001,2 hPa 0,0 l/m 0,3 km/h (0 Bft) 0,00 h 0,00 h 0,9 km/h (0 Bft)
04.04.2012 01:00 17,6 C 9,4 C 0,0 UV-I 0,0 C 50 % 76 % 0 % 1001,3 hPa 0,0 l/m 0,0 km/h (0 Bft) 0,00 h 0,00 h 0,0 km/h (0 Bft)
04.04.2012 02:00 17,3 C 8,7 C 0,0 UV-I 0,0 C 50 % 80 % 0 % 1001,7 hPa 0,0 l/m 0,0 km/h (0 Bft) 0,00 h 0,00 h 0,0 km/h (0 Bft)
04.04.2012 03:00 17,2 C 8,3 C 0,0 UV-I 0,0 C 51 % 82 % 0 % 1002,0 hPa 0,0 l/m 0,0 km/h (0 Bft) 0,00 h 0,00 h 0,0 km/h (0 Bft)
04.04.2012 04:00 17,0 C 7,5 C 0,0 UV-I 0,0 C 51 % 83 % 0 % 1002,0 hPa 0,0 l/m 0,0 km/h (0 Bft) 0,00 h 0,00 h 0,0 km/h (0 Bft)
04.04.2012 05:00 16,7 C 6,7 C 0,0 UV-I 0,0 C 51 % 86 % 0 % 1002,4 hPa 0,0 l/m 0,1 km/h (0 Bft) 0,00 h 0,00 h 1,6 km/h (1 Bft)
04.04.2012 06:00 16,6 C 6,9 C 0,0 UV-I 0,0 C 50 % 87 % 0 % 1003,1 hPa 0,0 l/m 0,3 km/h (0 Bft) 0,00 h 0,00 h 1,3 km/h (1 Bft)
04.04.2012 07:00 16,5 C 6,7 C 0,0 UV-I 0,0 C 51 % 87 % 0 % 1003,8 hPa 0,0 l/m 0,1 km/h (0 Bft) 0,00 h 0,00 h 0,0 km/h (0 Bft)
04.04.2012 08:00 16,5 C 6,7 C 0,0 UV-I 0,2 C 51 % 89 % 6 % 1004,5 hPa 0,0 l/m 0,0 km/h (0 Bft) 0,00 h 0,00 h 0,0 km/h (0 Bft)
04.04.2012 09:00 16,6 C 7,7 C 0,1 UV-I 1,9 C 51 % 89 % 53 % 1005,4 hPa 0,0 l/m 1,6 km/h (1 Bft) 0,00 h 0,00 h 3,9 km/h (1 Bft)
04.04.2012 10:00 16,9 C 8,8 C 0,3 UV-I 2,6 C 52 % 89 % 74 % 1006,7 hPa 0,0 l/m 3,7 km/h (1 Bft) 0,20 h 0,00 h 6,5 km/h (2 Bft)
04.04.2012 11:00 17,3 C 10,2 C 0,9 UV-I 4,8 C 52 % 86 % 100 % 1007,7 hPa 0,0 l/m 1,9 km/h (1 Bft) 1,00 h 0,00 h 4,5 km/h (1 Bft)
04.04.2012 12:00 17,7 C 11,0 C 0,2 UV-I 2,1 C 50 % 81 % 58 % 1008,3 hPa 0,0 l/m 2,7 km/h (1 Bft) 0,10 h 0,00 h 6,1 km/h (2 Bft)
04.04.2012 13:00 17,5 C 11,1 C 0,1 UV-I 1,3 C 49 % 79 % 38 % 1008,8 hPa 0,0 l/m 2,2 km/h (1 Bft) 0,00 h 0,10 h 5,7 km/h (1 Bft)
04.04.2012 14:00 17,3 C 10,7 C 0,0 UV-I 0,2 C 51 % 83 % 5 % 1009,1 hPa 0,2 l/m 2,3 km/h (1 Bft) 0,00 h 0,77 h 6,0 km/h (2 Bft)
04.04.2012 15:00 16,9 C 9,9 C 0,0 UV-I 0,0 C 55 % 88 % 0 % 1009,6 hPa 1,1 l/m 1,0 km/h (0 Bft) 0,00 h 0,90 h 2,6 km/h (1 Bft)
04.04.2012 16:00 16,8 C 9,8 C 0,0 UV-I 0,0 C 57 % 91 % 1 % 1009,8 hPa 0,1 l/m 2,0 km/h (1 Bft) 0,00 h 0,17 h 4,2 km/h (1 Bft)
04.04.2012 17:00 16,7 C 10,0 C 0,0 UV-I 0,0 C 57 % 92 % 0 % 1010,1 hPa 0,0 l/m 0,8 km/h (0 Bft) 0,00 h 0,00 h 2,3 km/h (1 Bft)
04.04.2012 18:00 16,6 C 9,9 C 0,0 UV-I 0,0 C 57 % 93 % 0 % 1010,2 hPa 0,0 l/m 1,7 km/h (1 Bft) 0,00 h 0,30 h 3,3 km/h (1 Bft)
04.04.2012 19:00 16,7 C 9,8 C 0,0 UV-I 0,0 C 57 % 94 % 0 % 1010,7 hPa 0,0 l/m 4,0 km/h (1 Bft) 0,00 h 0,13 h 6,4 km/h (2 Bft)
04.04.2012 20:00 16,7 C 9,3 C 0,0 UV-I 0,0 C 58 % 95 % 0 % 1011,4 hPa 0,0 l/m 8,1 km/h (2 Bft) 0,00 h 0,37 h 12,0 km/h (2 Bft)
04.04.2012 21:00 16,6 C 8,5 C 0,0 UV-I 0,0 C 58 % 94 % 0 % 1012,4 hPa 0,1 l/m 6,9 km/h (2 Bft) 0,00 h 0,00 h 10,5 km/h (2 Bft)
04.04.2012 22:00 16,5 C 8,0 C 0,0 UV-I 0,0 C 58 % 94 % 0 % 1012,9 hPa 0,0 l/m 8,9 km/h (2 Bft) 0,00 h 0,00 h 13,2 km/h (3 Bft)
04.04.2012 23:00 16,4 C 7,7 C 0,0 UV-I 0,0 C 57 % 93 % 0 % 1013,7 hPa 0,0 l/m 3,9 km/h (1 Bft) 0,00 h 0,00 h 5,9 km/h (2 Bft)
05.04.2012 00:00 16,4 C 7,6 C 0,0 UV-I 0,0 C 57 % 91 % 0 % 1014,0 hPa 0,0 l/m 4,3 km/h (1 Bft) 0,00 h 0,00 h 9,6 km/h (2 Bft)
05.04.2012 01:00 16,4 C 7,4 C 0,0 UV-I 0,0 C 56 % 90 % 0 % 1014,4 hPa 0,0 l/m 4,7 km/h (1 Bft) 0,00 h 0,00 h 7,1 km/h (2 Bft)
05.04.2012 02:00 16,4 C 7,2 C 0,0 UV-I 0,0 C 56 % 90 % 0 % 1014,7 hPa 0,0 l/m 5,6 km/h (1 Bft) 0,00 h 0,00 h 8,6 km/h (2 Bft)
05.04.2012 03:00 16,3 C 7,0 C 0,0 UV-I 0,0 C 55 % 89 % 0 % 1014,7 hPa 0,0 l/m 4,6 km/h (1 Bft) 0,00 h 0,00 h 8,0 km/h (2 Bft)
05.04.2012 04:00 16,3 C 6,7 C 0,0 UV-I 0,0 C 55 % 89 % 0 % 1015,0 hPa 0,0 l/m 5,5 km/h (1 Bft) 0,00 h 0,00 h 8,5 km/h (2 Bft)
05.04.2012 05:00 16,2 C 6,5 C 0,0 UV-I 0,0 C 54 % 90 % 0 % 1015,2 hPa 0,0 l/m 7,1 km/h (2 Bft) 0,00 h 0,00 h 11,0 km/h (2 Bft)
05.04.2012 06:00 16,2 C 6,4 C 0,0 UV-I 0,0 C 54 % 89 % 0 % 1015,4 hPa 0,0 l/m 6,3 km/h (2 Bft) 0,00 h 0,00 h 9,7 km/h (2 Bft)
05.04.2012 07:00 16,1 C 6,4 C 0,0 UV-I 0,0 C 53 % 89 % 0 % 1015,7 hPa 0,0 l/m 6,9 km/h (2 Bft) 0,00 h 0,00 h 10,8 km/h (2 Bft)
05.04.2012 08:00 16,1 C 6,5 C 0,0 UV-I 0,0 C 53 % 89 % 0 % 1016,3 hPa 0,0 l/m 7,7 km/h (2 Bft) 0,00 h 0,00 h 12,4 km/h (3 Bft)
05.04.2012 09:00 16,2 C 6,7 C 0,0 UV-I 0,2 C 53 % 88 % 6 % 1016,7 hPa 0,0 l/m 8,4 km/h (2 Bft) 0,00 h 0,00 h 11,7 km/h (2 Bft)
05.04.2012 10:00 16,2 C 6,7 C 0,0 UV-I 0,2 C 53 % 86 % 5 % 1017,3 hPa 0,0 l/m 6,0 km/h (2 Bft) 0,00 h 0,00 h 7,9 km/h (2 Bft)
05.04.2012 11:00 16,2 C 6,9 C 0,0 UV-I 0,3 C 52 % 85 % 10 % 1017,6 hPa 0,0 l/m 6,8 km/h (2 Bft) 0,00 h 0,00 h 11,8 km/h (2 Bft)
05.04.2012 12:00 16,2 C 7,2 C 0,0 UV-I 0,5 C 52 % 84 % 15 % 1017,6 hPa 0,0 l/m 6,1 km/h (2 Bft) 0,00 h 0,00 h 8,9 km/h (2 Bft)
05.04.2012 13:00 16,3 C 7,5 C 0,0 UV-I 0,6 C 52 % 83 % 18 % 1017,7 hPa 0,0 l/m 5,4 km/h (1 Bft) 0,00 h 0,00 h 9,4 km/h (2 Bft)
05.04.2012 14:00 16,3 C 7,6 C 0,0 UV-I 0,8 C 52 % 82 % 22 % 1017,7 hPa 0,0 l/m 5,8 km/h (2 Bft) 0,00 h 0,00 h 9,0 km/h (2 Bft)
05.04.2012 15:00 16,3 C 7,8 C 0,0 UV-I 0,7 C 51 % 81 % 19 % 1017,7 hPa 0,0 l/m 5,5 km/h (1 Bft) 0,00 h 0,00 h 8,3 km/h (2 Bft)
05.04.2012 16:00 16,4 C 8,0 C 0,0 UV-I 0,6 C 51 % 80 % 17 % 1017,3 hPa 0,0 l/m 4,3 km/h (1 Bft) 0,00 h 0,00 h 8,0 km/h (2 Bft)
05.04.2012 17:00 16,4 C 8,1 C 0,0 UV-I 0,3 C 51 % 79 % 9 % 1017,0 hPa 0,0 l/m 4,8 km/h (1 Bft) 0,00 h 0,00 h 8,7 km/h (2 Bft)
05.04.2012 18:00 16,3 C 8,1 C 0,0 UV-I 0,0 C 51 % 78 % 1 % 1016,9 hPa 0,0 l/m 2,9 km/h (1 Bft) 0,00 h 0,00 h 7,0 km/h (2 Bft)
05.04.2012 19:00 16,2 C 8,0 C 0,0 UV-I 0,0 C 51 % 78 % 0 % 1016,9 hPa 0,0 l/m 1,5 km/h (1 Bft) 0,00 h 0,00 h 2,9 km/h (1 Bft)
05.04.2012 20:00 16,2 C 7,8 C 0,0 UV-I 0,0 C 51 % 78 % 0 % 1016,9 hPa 0,0 l/m 1,6 km/h (1 Bft) 0,00 h 0,00 h 4,7 km/h (1 Bft)
05.04.2012 21:00 16,1 C 7,6 C 0,0 UV-I 0,0 C 51 % 80 % 0 % 1017,2 hPa 0,0 l/m 0,6 km/h (0 Bft) 0,00 h 0,00 h 2,6 km/h (1 Bft)
05.04.2012 22:00 16,0 C 7,4 C 0,0 UV-I 0,0 C 51 % 81 % 0 % 1017,2 hPa 0,0 l/m 2,4 km/h (1 Bft) 0,00 h 0,00 h 4,4 km/h (1 Bft)
05.04.2012 23:00 15,9 C 6,9 C 0,0 UV-I 0,0 C 51 % 83 % 0 % 1017,0 hPa 0,0 l/m 5,0 km/h (1 Bft) 0,00 h 0,00 h 7,5 km/h (2 Bft)
06.04.2012 00:00 16,0 C 6,7 C 0,0 UV-I 0,0 C 51 % 84 % 0 % 1017,1 hPa 0,0 l/m 5,0 km/h (1 Bft) 0,00 h 0,00 h 7,4 km/h (2 Bft)
06.04.2012 01:00 15,9 C 6,4 C 0,0 UV-I 0,0 C 51 % 85 % 0 % 1016,9 hPa 0,0 l/m 6,5 km/h (2 Bft) 0,00 h 0,00 h 8,8 km/h (2 Bft)
06.04.2012 02:00 15,9 C 6,1 C 0,0 UV-I 0,0 C 52 % 86 % 0 % 1016,5 hPa 0,0 l/m 4,7 km/h (1 Bft) 0,00 h 0,00 h 7,0 km/h (2 Bft)
06.04.2012 03:00 15,8 C 5,8 C 0,0 UV-I 0,0 C 51 % 87 % 0 % 1016,0 hPa 0,0 l/m 6,6 km/h (2 Bft) 0,00 h 0,00 h 8,9 km/h (2 Bft)
06.04.2012 04:00 15,7 C 5,4 C 0,0 UV-I 0,0 C 51 % 88 % 0 % 1015,6 hPa 0,0 l/m 5,0 km/h (1 Bft) 0,00 h 0,00 h 7,6 km/h (2 Bft)
06.04.2012 05:00 15,6 C 5,1 C 0,0 UV-I 0,0 C 51 % 88 % 0 % 1015,0 hPa 0,0 l/m 3,2 km/h (1 Bft) 0,00 h 0,00 h 6,4 km/h (2 Bft)
06.04.2012 06:00 15,6 C 4,9 C 0,0 UV-I 0,0 C 51 % 89 % 0 % 1014,7 hPa 0,0 l/m 5,0 km/h (1 Bft) 0,00 h 0,00 h 9,1 km/h (2 Bft)
06.04.2012 07:00 15,4 C 4,7 C 0,0 UV-I 0,0 C 51 % 90 % 0 % 1014,6 hPa 0,0 l/m 2,7 km/h (1 Bft) 0,00 h 0,00 h 5,4 km/h (1 Bft)
06.04.2012 08:00 15,5 C 4,9 C 0,0 UV-I 0,2 C 51 % 90 % 6 % 1014,5 hPa 0,0 l/m 5,2 km/h (1 Bft) 0,00 h 0,00 h 9,5 km/h (2 Bft)
06.04.2012 09:00 15,6 C 5,4 C 0,0 UV-I 1,2 C 51 % 88 % 35 % 1014,5 hPa 0,0 l/m 6,9 km/h (2 Bft) 0,00 h 0,00 h 10,5 km/h (2 Bft)
06.04.2012 10:00 15,8 C 6,3 C 0,6 UV-I 3,1 C 50 % 84 % 81 % 1014,8 hPa 0,0 l/m 6,8 km/h (2 Bft) 0,57 h 0,00 h 10,6 km/h (2 Bft)
06.04.2012 11:00 16,0 C 7,3 C 0,6 UV-I 3,9 C 49 % 75 % 91 % 1014,7 hPa 0,0 l/m 4,8 km/h (1 Bft) 0,90 h 0,00 h 8,2 km/h (2 Bft)
06.04.2012 12:00 16,3 C 7,8 C 1,1 UV-I 4,2 C 48 % 69 % 98 % 1014,4 hPa 0,0 l/m 5,8 km/h (2 Bft) 1,00 h 0,00 h 11,9 km/h (2 Bft)
06.04.2012 13:00 16,8 C 8,7 C 2,6 UV-I 6,5 C 47 % 66 % 100 % 1014,2 hPa 0,0 l/m 6,6 km/h (2 Bft) 1,00 h 0,00 h 11,6 km/h (2 Bft)
06.04.2012 14:00 18,4 C 10,1 C 3,4 UV-I 7,6 C 44 % 62 % 100 % 1015,1 hPa 0,0 l/m 6,5 km/h (2 Bft) 1,00 h 0,00 h 10,7 km/h (2 Bft)
06.04.2012 15:00 20,4 C 11,1 C 3,6 UV-I 6,6 C 39 % 56 % 100 % 1014,6 hPa 0,0 l/m 8,1 km/h (2 Bft) 1,00 h 0,00 h 14,4 km/h (3 Bft)
06.04.2012 16:00 21,7 C 11,7 C 3,1 UV-I 5,7 C 36 % 52 % 100 % 1013,8 hPa 0,0 l/m 8,6 km/h (2 Bft) 1,00 h 0,00 h 17,4 km/h (3 Bft)
06.04.2012 17:00 21,7 C 12,0 C 1,6 UV-I 4,0 C 37 % 51 % 100 % 1012,9 hPa 0,0 l/m 8,5 km/h (2 Bft) 1,00 h 0,00 h 14,2 km/h (3 Bft)
06.04.2012 18:00 20,7 C 11,8 C 0,4 UV-I 1,9 C 39 % 48 % 54 % 1011,1 hPa 0,0 l/m 7,5 km/h (2 Bft) 0,20 h 0,00 h 13,4 km/h (3 Bft)
06.04.2012 19:00 19,7 C 10,7 C 0,0 UV-I 0,0 C 39 % 50 % 1 % 1010,1 hPa 0,0 l/m 4,0 km/h (1 Bft) 0,00 h 0,00 h 7,9 km/h (2 Bft)
06.04.2012 20:00 18,5 C 9,4 C 0,0 UV-I 0,0 C 40 % 53 % 0 % 1009,6 hPa 0,0 l/m 1,8 km/h (1 Bft) 0,00 h 0,00 h 3,7 km/h (1 Bft)
06.04.2012 21:00 17,7 C 8,6 C 0,0 UV-I 0,0 C 42 % 51 % 0 % 1009,4 hPa 0,0 l/m 5,8 km/h (2 Bft) 0,00 h 0,00 h 13,4 km/h (3 Bft)
06.04.2012 22:00 17,2 C 7,8 C 0,0 UV-I 0,0 C 41 % 49 % 0 % 1009,1 hPa 0,0 l/m 3,7 km/h (1 Bft) 0,00 h 0,00 h 6,6 km/h (2 Bft)
06.04.2012 23:00 16,9 C 7,1 C 0,0 UV-I 0,0 C 41 % 54 % 0 % 1008,8 hPa 0,0 l/m 0,6 km/h (0 Bft) 0,00 h 0,17 h 2,0 km/h (1 Bft)
07.04.2012 00:00 16,8 C 6,6 C 0,0 UV-I 0,0 C 43 % 67 % 0 % 1008,7 hPa 0,0 l/m 2,7 km/h (1 Bft) 0,00 h 0,23 h 6,0 km/h (2 Bft)
07.04.2012 01:00 16,6 C 5,9 C 0,0 UV-I 0,0 C 43 % 72 % 0 % 1008,3 hPa 0,1 l/m 2,3 km/h (1 Bft) 0,00 h 0,90 h 6,5 km/h (2 Bft)
07.04.2012 02:00 16,5 C 4,9 C 0,0 UV-I 0,0 C 44 % 80 % 0 % 1007,7 hPa 0,4 l/m 3,0 km/h (1 Bft) 0,00 h 0,97 h 7,8 km/h (2 Bft)
07.04.2012 03:00 16,3 C 4,4 C 0,0 UV-I 0,0 C 45 % 87 % 0 % 1007,2 hPa 0,2 l/m 3,3 km/h (1 Bft) 0,00 h 0,70 h 8,4 km/h (2 Bft)
07.04.2012 04:00 16,1 C 4,3 C 0,0 UV-I 0,0 C 46 % 90 % 0 % 1007,1 hPa 0,4 l/m 2,5 km/h (1 Bft) 0,00 h 1,00 h 7,7 km/h (2 Bft)
07.04.2012 05:00 16,0 C 4,4 C 0,0 UV-I 0,0 C 47 % 92 % 0 % 1007,0 hPa 0,4 l/m 1,9 km/h (1 Bft) 0,00 h 1,00 h 4,6 km/h (1 Bft)
07.04.2012 06:00 16,0 C 4,6 C 0,0 UV-I 0,0 C 48 % 92 % 0 % 1007,1 hPa 0,0 l/m 0,2 km/h (0 Bft) 0,00 h 0,30 h 0,6 km/h (0 Bft)
07.04.2012 07:00 15,8 C 4,7 C 0,0 UV-I 0,0 C 49 % 93 % 0 % 1007,2 hPa 0,1 l/m 0,0 km/h (0 Bft) 0,00 h 0,37 h 0,0 km/h (0 Bft)
07.04.2012 08:00 15,9 C 5,0 C 0,0 UV-I 0,3 C 49 % 94 % 8 % 1007,4 hPa 0,0 l/m 0,9 km/h (0 Bft) 0,00 h 0,00 h 2,6 km/h (1 Bft)
07.04.2012 09:00 16,0 C 5,8 C 0,0 UV-I 2,1 C 49 % 92 % 57 % 1007,7 hPa 0,0 l/m 3,7 km/h (1 Bft) 0,23 h 0,00 h 6,0 km/h (2 Bft)
07.04.2012 10:00 16,0 C 4,9 C 0,0 UV-I 0,1 C 49 % 91 % 3 % 1008,3 hPa 1,5 l/m 10,0 km/h (2 Bft) 0,00 h 0,67 h 17,6 km/h (3 Bft)
07.04.2012 11:00 16,0 C 4,9 C 0,8 UV-I 1,6 C 49 % 93 % 42 % 1008,6 hPa 0,1 l/m 8,7 km/h (2 Bft) 0,33 h 0,00 h 12,9 km/h (3 Bft)
07.04.2012 12:00 16,3 C 6,8 C 1,6 UV-I 2,9 C 48 % 78 % 77 % 1008,8 hPa 0,0 l/m 17,6 km/h (3 Bft) 0,57 h 0,00 h 29,0 km/h (5 Bft)
07.04.2012 13:00 16,9 C 7,7 C 1,8 UV-I 2,9 C 46 % 66 % 75 % 1009,2 hPa 0,0 l/m 20,2 km/h (4 Bft) 0,47 h 0,00 h 34,3 km/h (5 Bft)
07.04.2012 14:00 17,4 C 7,9 C 1,2 UV-I 2,1 C 43 % 59 % 55 % 1009,4 hPa 0,0 l/m 14,4 km/h (3 Bft) 0,33 h 0,00 h 23,7 km/h (4 Bft)
07.04.2012 15:00 18,1 C 8,3 C 1,2 UV-I 2,3 C 41 % 54 % 63 % 1009,7 hPa 0,0 l/m 14,3 km/h (3 Bft) 0,30 h 0,00 h 22,0 km/h (4 Bft)
07.04.2012 16:00 17,8 C 8,0 C 0,5 UV-I 1,0 C 40 % 56 % 29 % 1009,6 hPa 0,0 l/m 14,3 km/h (3 Bft) 0,00 h 0,00 h 20,3 km/h (4 Bft)
07.04.2012 17:00 17,2 C 7,1 C 0,1 UV-I 0,0 C 41 % 64 % 0 % 1009,4 hPa 0,0 l/m 16,8 km/h (3 Bft) 0,00 h 0,00 h 25,2 km/h (4 Bft)
07.04.2012 18:00 16,7 C 6,6 C 0,0 UV-I 0,0 C 42 % 62 % 0 % 1009,2 hPa 0,0 l/m 12,7 km/h (3 Bft) 0,00 h 0,00 h 19,6 km/h (3 Bft)
07.04.2012 19:00 16,4 C 6,2 C 0,0 UV-I 0,0 C 42 % 63 % 0 % 1009,6 hPa 0,0 l/m 8,6 km/h (2 Bft) 0,00 h 0,00 h 13,0 km/h (3 Bft)
07.04.2012 20:00 16,1 C 5,8 C 0,0 UV-I 0,0 C 42 % 67 % 0 % 1009,7 hPa 0,0 l/m 5,5 km/h (1 Bft) 0,00 h 0,00 h 9,7 km/h (2 Bft)
07.04.2012 21:00 15,9 C 5,3 C 0,0 UV-I 0,0 C 43 % 68 % 0 % 1010,3 hPa 0,0 l/m 3,3 km/h (1 Bft) 0,00 h 0,00 h 6,7 km/h (2 Bft)
07.04.2012 22:00 15,8 C 5,0 C 0,0 UV-I 0,0 C 43 % 68 % 0 % 1010,8 hPa 0,0 l/m 4,0 km/h (1 Bft) 0,00 h 0,00 h 8,1 km/h (2 Bft)
07.04.2012 23:00 15,7 C 4,8 C 0,0 UV-I 0,0 C 43 % 66 % 0 % 1011,3 hPa 0,0 l/m 7,8 km/h (2 Bft) 0,00 h 0,00 h 11,4 km/h (2 Bft)
08.04.2012 00:00 15,6 C 4,3 C 0,0 UV-I 0,0 C 43 % 67 % 0 % 1011,6 hPa 0,0 l/m 2,2 km/h (1 Bft) 0,00 h 0,00 h 3,5 km/h (1 Bft)
08.04.2012 01:00 15,5 C 3,2 C 0,0 UV-I 0,0 C 43 % 69 % 0 % 1011,7 hPa 0,0 l/m 0,0 km/h (0 Bft) 0,00 h 0,00 h 0,0 km/h (0 Bft)
08.04.2012 02:00 15,4 C 3,0 C 0,0 UV-I 0,0 C 42 % 71 % 0 % 1012,1 hPa 0,0 l/m 0,0 km/h (0 Bft) 0,00 h 0,00 h 0,0 km/h (0 Bft)
08.04.2012 03:00 15,3 C 2,7 C 0,0 UV-I 0,0 C 43 % 73 % 0 % 1012,4 hPa 0,0 l/m 0,0 km/h (0 Bft) 0,00 h 0,00 h 0,0 km/h (0 Bft)
08.04.2012 04:00 15,2 C 2,2 C 0,0 UV-I 0,0 C 43 % 75 % 0 % 1012,5 hPa 0,0 l/m 0,0 km/h (0 Bft) 0,00 h 0,00 h 0,0 km/h (0 Bft)
08.04.2012 05:00 15,1 C 1,5 C 0,0 UV-I 0,0 C 43 % 78 % 0 % 1012,8 hPa 0,0 l/m 0,0 km/h (0 Bft) 0,00 h 0,00 h 0,0 km/h (0 Bft)
08.04.2012 06:00 15,0 C 1,1 C 0,0 UV-I 0,0 C 43 % 80 % 0 % 1013,3 hPa 0,0 l/m 0,0 km/h (0 Bft) 0,00 h 0,00 h 0,0 km/h (0 Bft)
08.04.2012 07:00 14,8 C 0,4 C 0,0 UV-I 0,0 C 43 % 82 % 0 % 1013,7 hPa 0,0 l/m 0,1 km/h (0 Bft) 0,00 h 0,00 h 0,3 km/h (0 Bft)
08.04.2012 08:00 14,8 C 1,1 C 0,0 UV-I 1,1 C 42 % 83 % 20 % 1014,3 hPa 0,0 l/m 0,1 km/h (0 Bft) 0,20 h 0,00 h 0,3 km/h (0 Bft)
08.04.2012 09:00 14,8 C 4,0 C 0,7 UV-I 9,8 C 42 % 75 % 100 % 1015,1 hPa 0,0 l/m 0,8 km/h (0 Bft) 1,00 h 0,00 h 3,0 km/h (1 Bft)
08.04.2012 10:00 14,9 C 5,8 C 2,3 UV-I 9,5 C 41 % 63 % 100 % 1015,6 hPa 0,0 l/m 3,5 km/h (1 Bft) 1,00 h 0,00 h 7,3 km/h (2 Bft)
08.04.2012 11:00 15,1 C 6,5 C 3,8 UV-I 8,5 C 41 % 58 % 100 % 1015,9 hPa 0,0 l/m 4,7 km/h (1 Bft) 1,00 h 0,00 h 10,4 km/h (2 Bft)
08.04.2012 12:00 15,4 C 8,1 C 2,9 UV-I 6,8 C 40 % 53 % 99 % 1015,7 hPa 0,0 l/m 3,7 km/h (1 Bft) 1,00 h 0,00 h 7,7 km/h (2 Bft)
08.04.2012 13:00 15,9 C 8,6 C 2,2 UV-I 5,8 C 39 % 50 % 100 % 1015,7 hPa 0,0 l/m 4,5 km/h (1 Bft) 1,00 h 0,00 h 8,0 km/h (2 Bft)
08.04.2012 14:00 16,8 C 9,0 C 1,7 UV-I 4,4 C 37 % 50 % 98 % 1016,5 hPa 0,0 l/m 3,6 km/h (1 Bft) 1,00 h 0,00 h 6,6 km/h (2 Bft)
08.04.2012 15:00 17,7 C 9,7 C 1,7 UV-I 4,4 C 34 % 50 % 96 % 1016,1 hPa 0,0 l/m 4,4 km/h (1 Bft) 0,90 h 0,00 h 8,0 km/h (2 Bft)
08.04.2012 16:00 18,3 C 9,8 C 1,5 UV-I 3,4 C 33 % 49 % 86 % 1015,9 hPa 0,0 l/m 5,8 km/h (2 Bft) 0,60 h 0,00 h 11,4 km/h (2 Bft)
08.04.2012 17:00 18,8 C 10,8 C 1,4 UV-I 4,7 C 32 % 48 % 98 % 1016,1 hPa 0,0 l/m 6,0 km/h (2 Bft) 1,00 h 0,00 h 11,0 km/h (2 Bft)
08.04.2012 18:00 18,5 C 10,3 C 0,3 UV-I 1,8 C 33 % 51 % 52 % 1014,7 hPa 0,0 l/m 4,8 km/h (1 Bft) 0,17 h 0,00 h 9,1 km/h (2 Bft)
08.04.2012 19:00 17,5 C 9,2 C 0,0 UV-I 0,0 C 33 % 55 % 0 % 1013,5 hPa 0,0 l/m 4,3 km/h (1 Bft) 0,00 h 0,00 h 8,7 km/h (2 Bft)
08.04.2012 20:00 16,7 C 8,7 C 0,0 UV-I 0,0 C 36 % 58 % 0 % 1012,6 hPa 0,0 l/m 2,2 km/h (1 Bft) 0,00 h 0,00 h 5,2 km/h (1 Bft)
08.04.2012 21:00 16,2 C 8,6 C 0,0 UV-I 0,0 C 38 % 61 % 0 % 1011,8 hPa 0,0 l/m 2,1 km/h (1 Bft) 0,00 h 0,00 h 5,5 km/h (1 Bft)
08.04.2012 22:00 16,0 C 8,4 C 0,0 UV-I 0,0 C 39 % 62 % 0 % 1011,2 hPa 0,0 l/m 3,5 km/h (1 Bft) 0,00 h 0,00 h 7,5 km/h (2 Bft)
08.04.2012 23:00 16,0 C 8,3 C 0,0 UV-I 0,0 C 40 % 63 % 0 % 1010,4 hPa 0,0 l/m 4,9 km/h (1 Bft) 0,00 h 0,00 h 9,6 km/h (2 Bft)
Min-Datum _ 08.04.12 08.04.12 02.04.12 02.04.12 08.04.12 06.04.12 02.04.12 04.04.12 - 02.04.12 - - 02.04.12
_ Min-Zeit 06:58 07:48 00:00 00:00 16:44 17:56 00:00 00:44 - 00:00 - - 00:00
Minimum _ 14,8 C 0,2 C 0,0 UV-I 0,0 C 32 % 47 % 0 % 1001,0 hPa - 0,0 km/h (0 Bft) - - 0,0 km/h (0 Bft)
Max-Datum _ 06.04.12 03.04.12 08.04.12 08.04.12 04.04.12 04.04.12 02.04.12 05.04.12 07.04.12 07.04.12 02.04.12 03.04.12 07.04.12
_ Max-Zeit 16:40 16:02 11:38 09:52 19:52 19:56 10:40 15:04 10:20 13:46 10:24 03:12 13:34
Maximum _ 22,0 C 17,1 C 4,5 UV-I 10,5 C 58 % 95 % 100 % 1018,0 hPa 1,5 l/m 23,3 km/h
W (4 Bft)
0,03 h 0,03 h 47,8 km/h
W (6 Bft)
Durchschnitt _ 16,7 C 7,6 C 0,4 UV-I 1,3 C 47 % 76 % 25 % 1010,7 hPa #4,8 l/m 3,9 km/h (1 Bft) #32:30 h #9:10 h 6,8 km/h (2 Bft)
© 2012 W. Hausmann